Etusivu
METAR-TAF:

METAR-TAF

Lentoasemat :

Wink, Texas, Yhdysvallat

Leveyspiiri: 31-46-47N, Pituuspiiri: 103-12-05W, korkeus merenpinnasta: 860 m

Tämänhetkinen sää

Tämä raportti tehtiin 1 tunti ja 5 minuuttia sitten, kello 16.53 UTC
Tuuli 5 kn lounaasta
Lämpötila 10°C
Kosteus 32%
Ilmanpaine 1026 hPa
Näkyvyys: 16.1 km
selkeää

METAR: KINK 151653Z AUTO 23005KT 10SM CLR 10/M06 A3029 RMK AO2 SLP255 T01001061 TSNO

Aika: 11:58 (17:58 UTC)

Sääennuste

Tämä raportti tehtiin 15 minuuttia sitten, kello 17.43 UTC
Ennuste voimassa 15. päivästä klo 18 UTC - 16. päivään klo 18 UTC
Tuuli 7 kn etelästä/lounaasta
Näkyvyys: 10 km
Hajanaisia pilviä 25000 ft:n korkeudessa
From 16. päivästä klo 1100 UTC
Tuuli 6 kn pohjoisesta
Näkyvyys: 10 km
Hajanaisia pilviä 25000 ft:n korkeudessa

TAF: KINK 151743Z 1518/1618 20007KT P6SM SCT250 FM161100 36006KT P6SM SCT250

Säähavainnot ja -ennusteet yli 4000 lentoasemalta (METAR- ja TAF-raportit).

Käytössä olevat sääasemat on merkitty karttaan keltaisilla ja punaisilla pisteillä.

Aseta hiiri pisteen päälle nähdäksesi sääaseman nimen.

Klikkaa sitten nähdäksesi säähavainnot ja -ennusteet.

Kartan vaihtaminen: klikkaa mustalla rastilla varustettuja vihreitä pisteitä, niin voit zoomata sisään; viivalla varustettua vihreää pistettä, niin voit zoomata ulos tai vihreitä nuolia, niin pääset viereisille kartoille.


METAR-TAF: